createdAt,value
2018-12-25T00:01:41.548Z,1.20
2018-12-25T00:04:10.842Z,1.20
2018-12-25T00:06:40.044Z,1.40
2018-12-25T00:09:09.186Z,1.30
2018-12-25T00:11:38.032Z,1.30
2018-12-25T00:14:06.892Z,1.40
2018-12-25T00:16:36.019Z,1.30
2018-12-25T00:19:06.306Z,1.20
2018-12-25T00:21:35.553Z,1.30
2018-12-25T00:24:04.446Z,1.30
2018-12-25T00:26:33.652Z,1.20
2018-12-25T00:29:02.524Z,1.10
2018-12-25T00:31:31.378Z,1.10
2018-12-25T00:34:00.242Z,0.90
2018-12-25T00:36:29.109Z,0.80
2018-12-25T00:38:58.061Z,0.80
2018-12-25T00:41:27.168Z,0.70
2018-12-25T00:43:56.032Z,0.70
2018-12-25T00:46:24.881Z,0.70
2018-12-25T00:48:54.380Z,0.70
2018-12-25T00:51:23.677Z,0.50
2018-12-25T00:53:52.857Z,0.60
2018-12-25T00:56:21.715Z,0.60
2018-12-25T00:58:50.945Z,0.50
2018-12-25T01:01:19.800Z,0.50
2018-12-25T01:03:49.342Z,0.40
2018-12-25T01:06:18.196Z,0.40
2018-12-25T01:08:47.330Z,0.40
2018-12-25T01:11:16.457Z,0.40
2018-12-25T01:13:45.325Z,0.30
2018-12-25T01:16:14.325Z,0.40
2018-12-25T01:18:43.456Z,0.40
2018-12-25T01:21:12.386Z,0.40
2018-12-25T01:23:41.244Z,0.40
2018-12-25T01:26:10.174Z,0.30
2018-12-25T01:28:39.109Z,0.20
2018-12-25T01:31:07.972Z,0.20
2018-12-25T01:33:37.158Z,0.30
2018-12-25T01:36:06.361Z,0.50
2018-12-25T01:38:35.222Z,0.50
2018-12-25T01:41:04.652Z,0.60
2018-12-25T01:43:33.521Z,0.40
2018-12-25T01:46:02.405Z,0.60
2018-12-25T01:48:31.262Z,0.60
2018-12-25T01:51:00.209Z,0.50
2018-12-25T01:53:29.145Z,0.40
2018-12-25T01:55:58.360Z,0.30
2018-12-25T01:58:27.541Z,0.30
2018-12-25T02:00:56.909Z,0.30
2018-12-25T02:03:25.781Z,0.20
2018-12-25T02:05:54.653Z,0.10
2018-12-25T02:08:23.589Z,0.10
2018-12-25T02:10:52.779Z,0.20
2018-12-25T02:13:21.642Z,0.40
2018-12-25T02:15:50.573Z,0.30
2018-12-25T02:18:19.757Z,0.20
2018-12-25T02:20:48.619Z,0.10
2018-12-25T02:23:17.477Z,0.00
2018-12-25T02:25:46.344Z,0.00
2018-12-25T02:28:15.275Z,-0.10
2018-12-25T02:30:44.472Z,-0.10
2018-12-25T02:33:13.330Z,-0.10
2018-12-25T02:35:42.221Z,-0.10
2018-12-25T02:38:11.093Z,0.00
2018-12-25T02:40:40.308Z,-0.10
2018-12-25T02:43:09.595Z,-0.20
2018-12-25T02:45:38.889Z,-0.20
2018-12-25T02:48:07.824Z,-0.20
2018-12-25T02:50:36.693Z,-0.20
2018-12-25T02:53:05.697Z,-0.30
2018-12-25T02:55:34.597Z,-0.40
2018-12-25T02:58:03.608Z,-0.40
2018-12-25T03:00:32.531Z,-0.40
2018-12-25T03:03:01.405Z,-0.40
2018-12-25T03:05:30.368Z,-0.50
2018-12-25T03:07:59.348Z,-0.50
2018-12-25T03:10:28.276Z,-0.50
2018-12-25T03:12:57.722Z,-0.50
2018-12-25T03:15:26.989Z,-0.50
2018-12-25T03:17:55.869Z,-0.60
2018-12-25T03:20:24.749Z,-0.50
2018-12-25T03:22:53.617Z,-0.30
2018-12-25T03:25:22.477Z,-0.30
2018-12-25T03:27:51.678Z,-0.40
2018-12-25T03:30:20.540Z,-0.50
2018-12-25T03:32:49.793Z,-0.50
2018-12-25T03:35:18.708Z,-0.60
2018-12-25T03:37:47.977Z,-0.60
2018-12-25T03:40:16.903Z,-0.60
2018-12-25T03:42:45.845Z,-0.70
2018-12-25T03:45:15.046Z,-0.60
2018-12-25T03:47:43.924Z,-0.60
2018-12-25T03:50:12.859Z,-0.70
2018-12-25T03:52:41.802Z,-0.70
2018-12-25T03:55:10.917Z,-0.80
2018-12-25T03:57:39.846Z,-0.80
2018-12-25T04:00:09.118Z,-0.80
2018-12-25T04:02:38.415Z,-0.90
2018-12-25T04:05:07.496Z,-0.90
2018-12-25T04:07:36.429Z,-0.90
2018-12-25T04:10:05.862Z,-0.90
2018-12-25T04:12:35.120Z,-1.00
2018-12-25T04:15:04.669Z,-0.90
2018-12-25T04:17:33.861Z,-0.90
2018-12-25T04:20:02.797Z,-0.90
2018-12-25T04:22:31.732Z,-0.90
2018-12-25T04:25:00.895Z,-0.90
2018-12-25T04:27:30.087Z,-0.90
2018-12-25T04:29:58.945Z,-0.90
2018-12-25T04:32:27.815Z,-0.90
2018-12-25T04:34:56.963Z,-1.00
2018-12-25T04:37:25.929Z,-1.00
2018-12-25T04:39:54.861Z,-1.00
2018-12-25T04:42:23.714Z,-1.00
2018-12-25T04:44:52.901Z,-1.00
2018-12-25T04:47:21.775Z,-1.00
2018-12-25T04:49:50.636Z,-1.10
2018-12-25T04:52:19.570Z,-1.00
2018-12-25T04:54:48.549Z,-0.90
2018-12-25T04:57:17.694Z,-0.90
2018-12-25T04:59:46.560Z,-0.90
2018-12-25T05:02:15.425Z,-0.90
2018-12-25T05:04:44.576Z,-0.90
2018-12-25T05:07:13.432Z,-1.00
2018-12-25T05:09:42.735Z,-1.00
2018-12-25T05:12:11.867Z,-1.00
2018-12-25T05:14:40.981Z,-1.00
2018-12-25T05:17:09.913Z,-1.10
2018-12-25T05:19:39.458Z,-1.10
2018-12-25T05:22:08.661Z,-1.20
2018-12-25T05:24:37.589Z,-1.20
2018-12-25T05:27:06.773Z,-1.20
2018-12-25T05:29:35.636Z,-1.20
2018-12-25T05:32:04.645Z,-1.20
2018-12-25T05:34:33.589Z,-1.20
2018-12-25T05:37:02.745Z,-1.20
2018-12-25T05:39:31.612Z,-1.30
2018-12-25T05:42:00.543Z,-1.30
2018-12-25T05:44:29.480Z,-1.30
2018-12-25T05:46:58.329Z,-1.40
2018-12-25T05:49:27.207Z,-1.40
2018-12-25T05:51:56.128Z,-1.50
2018-12-25T05:54:25.383Z,-1.50
2018-12-25T05:56:54.240Z,-1.50
2018-12-25T05:59:23.116Z,-1.50
2018-12-25T06:01:51.986Z,-1.40
2018-12-25T06:04:21.138Z,-1.30
2018-12-25T06:06:50.438Z,-1.30
2018-12-25T06:09:19.946Z,-1.20
2018-12-25T06:11:48.876Z,-1.10
2018-12-25T06:14:18.071Z,-1.10
2018-12-25T06:16:47.235Z,-1.10
2018-12-25T06:19:16.177Z,-1.00
2018-12-25T06:21:45.313Z,-0.90
2018-12-25T06:24:14.184Z,-0.80
2018-12-25T06:26:43.410Z,-0.70
2018-12-25T06:29:12.285Z,-0.60
2018-12-25T06:31:41.544Z,-0.50
2018-12-25T06:34:11.003Z,-0.50
2018-12-25T06:36:40.240Z,-0.50
2018-12-25T06:39:09.909Z,-0.60
2018-12-25T06:41:38.932Z,-0.60
2018-12-25T06:44:07.864Z,-0.60
2018-12-25T06:46:36.742Z,-0.70
2018-12-25T06:49:05.922Z,-0.60
2018-12-25T06:51:35.104Z,-0.50
2018-12-25T06:54:04.037Z,-0.60
2018-12-25T06:56:32.904Z,-0.60
2018-12-25T06:59:01.832Z,-0.60
2018-12-25T07:01:31.057Z,-0.90
2018-12-25T07:03:59.927Z,-0.80
2018-12-25T07:06:28.875Z,-0.80
2018-12-25T07:08:58.070Z,-0.70
2018-12-25T07:11:26.936Z,-0.70
2018-12-25T07:13:56.183Z,-0.70
2018-12-25T07:16:25.734Z,-0.90
2018-12-25T07:18:55.008Z,-1.00
2018-12-25T07:21:23.885Z,-0.90
2018-12-25T07:23:52.746Z,-1.00
2018-12-25T07:26:21.918Z,-1.00
2018-12-25T07:28:50.785Z,-0.90
2018-12-25T07:31:19.660Z,-0.90
2018-12-25T07:33:48.526Z,-1.00
2018-12-25T07:36:17.751Z,-1.10
2018-12-25T07:38:46.931Z,-1.10
2018-12-25T07:41:15.788Z,-1.10
2018-12-25T07:43:44.645Z,-0.90
2018-12-25T07:46:13.588Z,-1.00
2018-12-25T07:48:42.897Z,-0.90
2018-12-25T07:51:20.540Z,-0.90
2018-12-25T07:53:42.643Z,-1.00
2018-12-25T07:56:11.513Z,-1.10
2018-12-25T07:58:41.025Z,-1.20
2018-12-25T08:01:09.988Z,-1.20
2018-12-25T08:03:38.830Z,-1.00
2018-12-25T08:06:07.717Z,-1.10
2018-12-25T08:08:36.732Z,-1.00
2018-12-25T08:11:05.590Z,-1.00
2018-12-25T08:13:34.468Z,-0.90
2018-12-25T08:16:03.400Z,-0.90
2018-12-25T08:18:32.284Z,-0.90
2018-12-25T08:21:01.213Z,-0.80
2018-12-25T08:23:30.400Z,-0.80
2018-12-25T08:25:59.334Z,-0.90
2018-12-25T08:28:28.484Z,-1.00
2018-12-25T08:30:57.341Z,-1.00
2018-12-25T08:33:26.682Z,-0.90
2018-12-25T08:35:55.569Z,-0.70
2018-12-25T08:38:24.447Z,-0.50
2018-12-25T08:40:53.782Z,-0.40
2018-12-25T08:43:23.382Z,-0.20
2018-12-25T08:45:52.673Z,-0.20
2018-12-25T08:48:21.549Z,-0.20
2018-12-25T08:50:50.767Z,-0.30
2018-12-25T08:53:19.653Z,-0.30
2018-12-25T08:55:48.865Z,-0.20
2018-12-25T08:58:18.373Z,-0.40
2018-12-25T09:00:47.554Z,-0.50
2018-12-25T09:03:16.506Z,-0.50
2018-12-25T09:05:45.358Z,-0.30
2018-12-25T09:08:14.313Z,-0.40
2018-12-25T09:10:43.520Z,-0.20
2018-12-25T09:13:12.401Z,-0.40
2018-12-25T09:15:41.261Z,-0.40
2018-12-25T09:18:10.562Z,-0.30
2018-12-25T09:20:39.881Z,-0.20
2018-12-25T09:23:09.112Z,-0.10
2018-12-25T09:25:38.306Z,-0.20
2018-12-25T09:28:07.610Z,-0.10
2018-12-25T09:30:36.796Z,0.00
2018-12-25T09:33:05.737Z,0.30
2018-12-25T09:35:35.097Z,0.40
2018-12-25T09:38:04.161Z,0.50
2018-12-25T09:40:33.255Z,0.70
2018-12-25T09:43:02.200Z,0.90
2018-12-25T09:45:31.189Z,1.00
2018-12-25T09:48:00.038Z,1.00
2018-12-25T09:50:28.905Z,0.90
2018-12-25T09:52:57.770Z,0.90
2018-12-25T09:55:26.633Z,1.00
2018-12-25T09:57:55.476Z,1.00
2018-12-25T10:00:24.622Z,0.90
2018-12-25T10:02:53.825Z,0.80
2018-12-25T10:05:22.764Z,0.80
2018-12-25T10:07:51.628Z,0.80
2018-12-25T10:10:20.580Z,0.90
2018-12-25T10:12:49.436Z,0.80
2018-12-25T10:15:18.621Z,0.90
2018-12-25T10:17:47.797Z,0.90
2018-12-25T10:20:16.680Z,0.80
2018-12-25T10:22:45.617Z,0.70
2018-12-25T10:25:14.497Z,0.70
2018-12-25T10:27:43.690Z,0.70
2018-12-25T10:30:12.633Z,0.70
2018-12-25T10:32:41.561Z,0.80
2018-12-25T10:35:10.513Z,0.90
2018-12-25T10:37:40.535Z,0.90
2018-12-25T10:40:09.949Z,0.80
2018-12-25T10:42:39.016Z,0.90
2018-12-25T10:45:08.044Z,1.00
2018-12-25T10:47:36.976Z,0.90
2018-12-25T10:50:07.390Z,1.00
2018-12-25T10:52:36.600Z,0.90
2018-12-25T10:55:05.540Z,1.00
2018-12-25T10:57:34.686Z,1.10
2018-12-25T11:00:04.650Z,1.10
2018-12-25T11:02:33.588Z,1.10
2018-12-25T11:05:02.464Z,0.90
2018-12-25T11:07:31.318Z,0.80
2018-12-25T11:10:00.188Z,0.80
2018-12-25T11:12:29.326Z,0.90
2018-12-25T11:14:58.277Z,0.90
2018-12-25T11:17:28.138Z,0.90
2018-12-25T11:19:56.996Z,0.90
2018-12-25T11:22:26.114Z,1.00
2018-12-25T11:24:54.984Z,1.10
2018-12-25T11:27:24.141Z,1.00
2018-12-25T11:29:53.021Z,0.90
2018-12-25T11:32:21.892Z,1.20
2018-12-25T11:34:50.747Z,1.20
2018-12-25T11:37:19.697Z,1.30
2018-12-25T11:39:49.667Z,1.10
2018-12-25T11:42:18.768Z,1.00
2018-12-25T11:44:47.625Z,1.00
2018-12-25T11:47:16.510Z,1.10
2018-12-25T11:49:45.381Z,1.20
2018-12-25T11:52:14.546Z,1.20
2018-12-25T11:54:43.400Z,1.20
2018-12-25T11:57:12.584Z,1.20
2018-12-25T11:59:41.437Z,1.20
2018-12-25T12:02:17.049Z,1.20
2018-12-25T12:04:40.892Z,1.20
2018-12-25T12:07:10.047Z,1.20
2018-12-25T12:09:38.901Z,1.30
2018-12-25T12:12:08.198Z,1.50
2018-12-25T12:14:37.200Z,1.40
2018-12-25T12:17:06.137Z,1.40
2018-12-25T12:19:35.064Z,1.50
2018-12-25T12:22:04.312Z,1.50
2018-12-25T12:24:33.336Z,1.40
2018-12-25T12:27:02.562Z,1.40
2018-12-25T12:29:31.508Z,1.40
2018-12-25T12:32:00.447Z,1.40
2018-12-25T12:34:29.381Z,1.40
2018-12-25T12:36:58.965Z,1.50
2018-12-25T12:39:27.910Z,1.60
2018-12-25T12:41:56.833Z,1.80
2018-12-25T12:44:25.703Z,1.80
2018-12-25T12:46:55.288Z,1.90
2018-12-25T12:49:24.131Z,1.90
2018-12-25T12:51:53.071Z,1.70
2018-12-25T12:54:21.942Z,1.70
2018-12-25T12:56:51.147Z,1.80
2018-12-25T12:59:20.341Z,1.70
2018-12-25T13:01:49.196Z,1.60
2018-12-25T13:04:18.081Z,1.60
2018-12-25T13:06:47.378Z,1.70
2018-12-25T13:09:16.316Z,2.00
2018-12-25T13:11:45.256Z,2.10
2018-12-25T13:14:14.406Z,2.00
2018-12-25T13:16:43.608Z,2.10
2018-12-25T13:19:12.853Z,2.10
2018-12-25T13:21:41.769Z,2.00
2018-12-25T13:24:10.721Z,2.00
2018-12-25T13:26:39.988Z,2.10
2018-12-25T13:29:09.012Z,2.10
2018-12-25T13:31:37.872Z,2.10
2018-12-25T13:34:06.741Z,2.10
2018-12-25T13:36:35.900Z,2.10
2018-12-25T13:39:07.210Z,2.10
2018-12-25T13:41:36.648Z,2.00
2018-12-25T13:44:05.959Z,2.00
2018-12-25T13:46:35.229Z,2.00
2018-12-25T13:49:04.401Z,2.10
2018-12-25T13:51:33.265Z,2.10
2018-12-25T13:54:02.480Z,1.80
2018-12-25T13:56:31.417Z,1.70
2018-12-25T13:59:00.694Z,1.70
2018-12-25T14:01:29.548Z,1.50
2018-12-25T14:03:58.445Z,1.60
2018-12-25T14:06:27.380Z,1.60
2018-12-25T14:08:56.565Z,1.60
2018-12-25T14:11:25.530Z,1.80
2018-12-25T14:13:54.729Z,1.90
2018-12-25T14:16:23.668Z,1.90
2018-12-25T14:18:52.548Z,2.00
2018-12-25T14:21:21.506Z,2.10
2018-12-25T14:23:50.384Z,2.10
2018-12-25T14:26:19.312Z,2.20
2018-12-25T14:28:48.181Z,2.00
2018-12-25T14:31:17.122Z,2.00
2018-12-25T14:33:46.294Z,2.00
2018-12-25T14:36:15.485Z,2.10
2018-12-25T14:38:44.425Z,2.10
2018-12-25T14:41:13.365Z,2.00
2018-12-25T14:43:42.289Z,1.90
2018-12-25T14:46:11.155Z,1.90
2018-12-25T14:48:40.093Z,2.00
2018-12-25T14:51:08.968Z,1.90
2018-12-25T14:53:37.834Z,2.00
2018-12-25T14:56:07.148Z,2.10
2018-12-25T14:58:36.018Z,2.00
2018-12-25T15:01:05.032Z,2.10
2018-12-25T15:03:34.312Z,2.00
2018-12-25T15:06:04.091Z,1.90
2018-12-25T15:08:33.332Z,1.70
2018-12-25T15:11:02.215Z,1.40
2018-12-25T15:13:31.064Z,1.50
2018-12-25T15:15:59.950Z,1.40
2018-12-25T15:18:29.402Z,1.40
2018-12-25T15:20:58.269Z,1.30
2018-12-25T15:23:28.241Z,1.10
2018-12-25T15:25:57.676Z,1.10
2018-12-25T15:28:26.621Z,1.10
2018-12-25T15:30:55.805Z,1.20
2018-12-25T15:33:24.729Z,1.10
2018-12-25T15:35:53.605Z,1.20
2018-12-25T15:38:22.537Z,1.30
2018-12-25T15:40:51.420Z,1.10
2018-12-25T15:43:20.353Z,1.00
2018-12-25T15:45:49.385Z,0.90
2018-12-25T15:48:18.313Z,0.90
2018-12-25T15:50:47.175Z,1.10
2018-12-25T15:53:16.105Z,1.30
2018-12-25T15:55:45.053Z,1.30
2018-12-25T15:58:17.973Z,1.20
2018-12-25T16:00:47.169Z,1.10
2018-12-25T16:03:16.024Z,0.80
2018-12-25T16:05:44.891Z,0.80
2018-12-25T16:08:13.745Z,0.90
2018-12-25T16:10:42.688Z,0.90
2018-12-25T16:13:11.545Z,0.90
2018-12-25T16:15:40.489Z,0.90
2018-12-25T16:18:09.676Z,0.90
2018-12-25T16:20:38.537Z,1.10
2018-12-25T16:23:07.732Z,1.10
2018-12-25T16:25:37.341Z,1.00
2018-12-25T16:28:06.201Z,1.00
2018-12-25T16:30:35.207Z,1.00
2018-12-25T16:33:04.145Z,0.90
2018-12-25T16:35:33.318Z,0.90
2018-12-25T16:38:02.341Z,0.90
2018-12-25T16:40:31.357Z,0.90
2018-12-25T16:43:00.217Z,1.00
2018-12-25T16:45:29.148Z,1.00
2018-12-25T16:47:58.782Z,1.00
2018-12-25T16:50:28.210Z,1.10
2018-12-25T16:52:57.408Z,1.20
2018-12-25T16:55:26.596Z,1.20
2018-12-25T16:57:55.465Z,1.30
2018-12-25T17:00:24.354Z,1.50
2018-12-25T17:02:53.281Z,1.30
2018-12-25T17:05:22.470Z,1.40
2018-12-25T17:07:51.723Z,1.40
2018-12-25T17:10:20.585Z,1.50
2018-12-25T17:12:49.533Z,1.50
2018-12-25T17:15:18.749Z,1.40
2018-12-25T17:17:47.697Z,1.20
2018-12-25T17:20:16.557Z,1.10
2018-12-25T17:22:45.424Z,1.10
2018-12-25T17:25:14.363Z,1.30
2018-12-25T17:27:43.822Z,1.20
2018-12-25T17:30:13.018Z,1.30
2018-12-25T17:32:41.889Z,1.30
2018-12-25T17:35:10.745Z,1.10
2018-12-25T17:37:40.004Z,1.20
2018-12-25T17:40:08.947Z,1.30
2018-12-25T17:42:38.292Z,1.30
2018-12-25T17:45:07.266Z,1.30
2018-12-25T17:47:36.131Z,1.20
2018-12-25T17:50:05.906Z,1.10
2018-12-25T17:52:34.858Z,1.20
2018-12-25T17:55:04.491Z,1.10
2018-12-25T17:57:33.437Z,1.00
2018-12-25T18:00:02.717Z,1.00
2018-12-25T18:02:31.996Z,1.10
2018-12-25T18:05:00.852Z,1.00
2018-12-25T18:07:29.772Z,0.90
2018-12-25T18:09:58.699Z,0.80
2018-12-25T18:12:27.590Z,0.80
2018-12-25T18:14:56.527Z,0.90
2018-12-25T18:17:25.543Z,0.90
2018-12-25T18:19:54.421Z,0.90
2018-12-25T18:22:23.725Z,0.90
2018-12-25T18:24:52.653Z,1.00
2018-12-25T18:27:21.532Z,1.00
2018-12-25T18:29:50.392Z,1.10
2018-12-25T18:32:19.314Z,1.20
2018-12-25T18:34:48.284Z,1.00
2018-12-25T18:37:17.755Z,0.90
2018-12-25T18:39:55.248Z,0.90
2018-12-25T18:42:24.230Z,0.90
2018-12-25T18:44:53.170Z,0.90
2018-12-25T18:47:22.182Z,1.10
2018-12-25T18:49:51.365Z,1.10
2018-12-25T18:52:20.300Z,1.20
2018-12-25T18:54:49.242Z,1.20
2018-12-25T18:57:18.439Z,1.30
2018-12-25T18:59:47.735Z,1.20
2018-12-25T19:02:16.669Z,1.10
2018-12-25T19:04:45.952Z,1.20
2018-12-25T19:07:15.233Z,1.10
2018-12-25T19:09:44.189Z,1.10
2018-12-25T19:12:13.116Z,1.10
2018-12-25T19:15:09.757Z,1.10
2018-12-25T19:17:38.718Z,1.10
2018-12-25T19:20:08.544Z,1.00
2018-12-25T19:22:37.478Z,0.90
2018-12-25T19:25:06.424Z,0.80
2018-12-25T19:27:35.288Z,0.80
2018-12-25T19:30:04.386Z,0.80
2018-12-25T19:32:33.644Z,0.80
2018-12-25T19:35:02.587Z,0.70
2018-12-25T19:37:31.933Z,0.70
2018-12-25T19:40:00.872Z,0.70
2018-12-25T19:42:30.121Z,0.70
2018-12-25T19:44:59.073Z,0.70
2018-12-25T19:47:28.377Z,0.90
2018-12-25T19:49:57.333Z,0.80
2018-12-25T19:52:26.600Z,0.80
2018-12-25T19:54:55.904Z,0.80
2018-12-25T19:57:24.837Z,0.80
2018-12-25T19:59:53.861Z,0.80
2018-12-25T20:02:25.109Z,0.80
2018-12-25T20:05:02.622Z,0.90
2018-12-25T20:08:14.327Z,0.90
2018-12-25T20:11:21.825Z,1.00
2018-12-25T20:14:17.521Z,1.00
2018-12-25T20:17:30.774Z,1.00
2018-12-25T20:20:52.701Z,0.90
2018-12-25T20:24:05.629Z,1.00
2018-12-25T20:27:14.609Z,1.00
2018-12-25T20:30:31.090Z,0.80
2018-12-25T20:33:18.487Z,0.80
2018-12-25T20:36:18.279Z,0.90
2018-12-25T20:39:17.572Z,0.80
2018-12-25T20:42:33.652Z,0.50
2018-12-25T20:45:49.090Z,0.60
2018-12-25T20:49:00.880Z,0.40
2018-12-25T20:52:09.453Z,0.40
2018-12-25T20:55:19.520Z,0.50
2018-12-25T20:58:22.585Z,0.60
2018-12-25T21:01:28.207Z,0.60
2018-12-25T21:04:40.830Z,0.60
2018-12-25T21:07:30.125Z,0.40
2018-12-25T21:10:46.705Z,0.50
2018-12-25T21:13:44.157Z,0.50
2018-12-25T21:17:05.781Z,0.50
2018-12-25T21:20:16.436Z,0.40
2018-12-25T21:23:21.299Z,0.40
2018-12-25T21:26:26.437Z,0.30
2018-12-25T21:28:56.048Z,0.20
2018-12-25T21:31:25.469Z,0.40
2018-12-25T21:33:54.748Z,0.50
2018-12-25T21:36:24.081Z,0.40
2018-12-25T21:38:53.089Z,0.30
2018-12-25T21:41:23.512Z,0.30
2018-12-25T21:43:52.540Z,0.30
2018-12-25T21:46:21.894Z,0.50
2018-12-25T21:48:50.902Z,0.50
2018-12-25T21:51:20.265Z,0.60
2018-12-25T21:53:49.681Z,0.60
2018-12-25T21:56:18.774Z,0.60
2018-12-25T21:58:47.875Z,0.50
2018-12-25T22:01:16.895Z,0.60
2018-12-25T22:03:45.994Z,0.60
2018-12-25T22:06:15.190Z,0.50
2018-12-25T22:08:44.052Z,0.50
2018-12-25T22:11:12.925Z,0.50
2018-12-25T22:13:42.132Z,0.60
2018-12-25T22:16:11.018Z,0.60
2018-12-25T22:18:40.017Z,0.70
2018-12-25T22:21:09.052Z,0.60
2018-12-25T22:23:38.504Z,0.50
2018-12-25T22:26:07.432Z,0.40
2018-12-25T22:28:36.598Z,0.50
2018-12-25T22:31:05.537Z,0.50
2018-12-25T22:33:34.684Z,0.50
2018-12-25T22:36:04.303Z,0.50
2018-12-25T22:38:33.318Z,0.40
2018-12-25T22:41:02.181Z,0.40
2018-12-25T22:43:31.124Z,0.50
2018-12-25T22:46:00.054Z,0.50
2018-12-25T22:48:29.569Z,0.40
2018-12-25T22:50:58.420Z,0.30
2018-12-25T22:53:27.310Z,0.40
2018-12-25T22:55:56.550Z,0.40
2018-12-25T22:58:25.416Z,0.60
2018-12-25T23:00:54.846Z,0.70
2018-12-25T23:03:24.041Z,0.70
2018-12-25T23:05:52.900Z,0.50
2018-12-25T23:08:22.442Z,0.50
2018-12-25T23:10:51.637Z,0.40
2018-12-25T23:13:20.513Z,0.50
2018-12-25T23:15:49.439Z,0.50
2018-12-25T23:18:18.309Z,0.60
2018-12-25T23:20:47.172Z,0.50
2018-12-25T23:23:16.049Z,0.40
2018-12-25T23:25:45.193Z,0.40
2018-12-25T23:28:14.489Z,0.40
2018-12-25T23:30:43.621Z,0.30
2018-12-25T23:33:12.493Z,0.30
2018-12-25T23:35:41.675Z,0.30
2018-12-25T23:38:10.557Z,0.30
2018-12-25T23:40:40.068Z,0.20
2018-12-25T23:43:08.940Z,0.10
2018-12-25T23:45:37.872Z,0.10
2018-12-25T23:48:06.742Z,0.00
2018-12-25T23:50:35.946Z,0.10
2018-12-25T23:53:05.165Z,0.00
2018-12-25T23:55:34.093Z,0.20
2018-12-25T23:58:03.041Z,0.30
